Time;durP1;ratioP1;P1;durP2;ratioP2;P2;SDS_P1;SDS_P2;PMS_P1;PMS_P2;Temp;Humidity;BMP_temperature;BMP_pressure;BME280_temperature;BME280_humidity;BME280_pressure;Samples;Min_cycle;Max_cycle;Signal;HPM_P1;HPM_P2
2021/11/30 00:01:13;;;;;;;;;;;21.80;59.30;;;;;;5074143;28;19931;-52
2021/11/30 00:03:40;;;;;;;;;;;21.70;59.20;;;;;;5074414;28;19947;-49
2021/11/30 00:06:07;;;;;;;;;;;21.70;59.20;;;;;;5074397;28;20269;-56
2021/11/30 00:08:36;;;;;;;;;;;21.70;59.20;;;;;;5056891;28;19932;-51
2021/11/30 00:11:08;;;;;;;;;;;21.70;59.30;;;;;;5073109;28;20276;-52
2021/11/30 00:13:37;;;;;;;;;;;21.70;59.40;;;;;;5074030;28;20376;-52
2021/11/30 00:16:04;;;;;;;;;;;21.70;59.40;;;;;;5074231;28;19935;-51
2021/11/30 00:18:34;;;;;;;;;;;21.70;59.40;;;;;;5073744;28;19924;-57
2021/11/30 00:21:03;;;;;;;;;;;21.70;59.40;;;;;;5056501;28;19925;-55
2021/11/30 00:23:30;;;;;;;;;;;21.60;59.40;;;;;;5073905;28;19950;-57
2021/11/30 00:25:57;;;;;;;;;;;21.60;59.40;;;;;;5072680;28;19977;-51
2021/11/30 00:28:25;;;;;;;;;;;21.60;59.40;;;;;;5073677;28;19931;-55
2021/11/30 00:30:53;;;;;;;;;;;21.60;59.40;;;;;;5074334;28;19974;-51
2021/11/30 00:33:20;;;;;;;;;;;21.60;59.50;;;;;;5074050;28;20277;-57
2021/11/30 00:35:47;;;;;;;;;;;21.60;59.50;;;;;;5073715;28;19973;-53
2021/11/30 00:38:14;;;;;;;;;;;21.60;60.10;;;;;;5073692;28;19928;-55
2021/11/30 00:40:41;;;;;;;;;;;21.60;59.50;;;;;;5072722;28;19925;-57
2021/11/30 00:43:09;;;;;;;;;;;21.60;59.60;;;;;;5074803;28;19929;-57
2021/11/30 00:45:49;;;;;;;;;;;21.60;59.60;;;;;;5073933;28;20363;-55
2021/11/30 00:48:21;;;;;;;;;;;21.60;59.60;;;;;;5073845;28;19924;-54
2021/11/30 00:50:50;;;;;;;;;;;21.60;59.60;;;;;;5073914;28;19931;-55
2021/11/30 00:53:17;;;;;;;;;;;21.50;59.60;;;;;;5073687;28;20330;-56
2021/11/30 00:55:44;;;;;;;;;;;21.50;59.50;;;;;;5073272;28;19924;-55
2021/11/30 00:58:11;;;;;;;;;;;21.50;59.60;;;;;;5055912;28;19924;-58
2021/11/30 01:00:38;;;;;;;;;;;21.50;59.50;;;;;;5073787;28;19924;-50
2021/11/30 01:03:06;;;;;;;;;;;21.50;59.50;;;;;;5073780;28;19970;-55
2021/11/30 01:05:34;;;;;;;;;;;21.60;59.60;;;;;;5073432;28;19929;-54
2021/11/30 01:08:01;;;;;;;;;;;21.50;59.50;;;;;;5073736;28;19924;-56
2021/11/30 01:10:28;;;;;;;;;;;21.50;59.50;;;;;;5072475;28;19924;-56
2021/11/30 01:12:55;;;;;;;;;;;21.50;59.60;;;;;;5073700;28;19925;-58
2021/11/30 01:15:22;;;;;;;;;;;21.50;59.50;;;;;;5073343;28;19924;-56
2021/11/30 01:17:50;;;;;;;;;;;21.50;59.50;;;;;;5073610;28;19931;-51
2021/11/30 01:20:17;;;;;;;;;;;21.50;59.50;;;;;;5073603;28;19978;-56
2021/11/30 01:22:44;;;;;;;;;;;21.50;59.60;;;;;;5073986;28;19932;-58
2021/11/30 01:25:11;;;;;;;;;;;21.50;59.60;;;;;;5073588;28;19924;-53
2021/11/30 01:27:38;;;;;;;;;;;21.50;59.60;;;;;;5072776;28;19986;-49
2021/11/30 01:30:07;;;;;;;;;;;21.50;59.50;;;;;;5076010;28;19930;-48
2021/11/30 01:32:34;;;;;;;;;;;21.50;60.10;;;;;;5076990;28;19928;-57
2021/11/30 01:35:01;;;;;;;;;;;21.50;59.60;;;;;;5077238;28;19924;-58
2021/11/30 01:37:28;;;;;;;;;;;21.50;59.60;;;;;;5077219;28;20447;-57
2021/11/30 01:39:55;;;;;;;;;;;21.50;59.50;;;;;;5077044;28;19925;-51
2021/11/30 01:42:22;;;;;;;;;;;21.50;59.60;;;;;;5076026;28;19924;-55
2021/11/30 01:44:55;;;;;;;;;;;21.50;59.50;;;;;;5076780;28;19925;-49
2021/11/30 01:47:25;;;;;;;;;;;21.50;59.50;;;;;;5077049;28;19970;-56
2021/11/30 01:49:52;;;;;;;;;;;21.50;59.50;;;;;;5077482;28;19950;-53
2021/11/30 01:52:19;;;;;;;;;;;21.50;59.50;;;;;;5076822;28;19946;-52
2021/11/30 01:54:48;;;;;;;;;;;21.50;59.40;;;;;;5076904;28;20334;-51
2021/11/30 01:57:15;;;;;;;;;;;21.50;59.50;;;;;;5075894;28;20330;-48
2021/11/30 01:59:43;;;;;;;;;;;21.50;59.50;;;;;;5076845;28;19978;-55
2021/11/30 02:02:11;;;;;;;;;;;21.50;59.60;;;;;;5076771;28;19924;-51
2021/11/30 02:04:39;;;;;;;;;;;21.40;59.50;;;;;;5077304;28;19924;-54
2021/11/30 02:07:07;;;;;;;;;;;21.40;59.40;;;;;;5076665;28;19925;-56
2021/11/30 02:09:35;;;;;;;;;;;21.40;59.50;;;;;;5076410;28;20288;-55
2021/11/30 02:12:03;;;;;;;;;;;21.50;59.60;;;;;;5075518;28;19929;-52
2021/11/30 02:14:35;;;;;;;;;;;21.40;59.40;;;;;;5076868;28;19935;-56
2021/11/30 02:17:03;;;;;;;;;;;21.40;59.40;;;;;;5076216;28;19924;-58
2021/11/30 02:19:30;;;;;;;;;;;21.40;59.40;;;;;;5076462;28;19925;-56
2021/11/30 02:21:57;;;;;;;;;;;21.40;59.40;;;;;;5076394;28;19931;-52
2021/11/30 02:24:24;;;;;;;;;;;21.40;59.40;;;;;;5058429;28;20369;-55
2021/11/30 02:26:51;;;;;;;;;;;21.40;59.40;;;;;;5075302;28;19924;-53
2021/11/30 02:29:18;;;;;;;;;;;21.40;59.50;;;;;;5075895;28;19924;-55
2021/11/30 02:31:47;;;;;;;;;;;21.40;59.40;;;;;;5076226;28;19932;-52
2021/11/30 02:34:15;;;;;;;;;;;21.40;59.40;;;;;;5076187;28;19932;-58
2021/11/30 02:36:51;;;;;;;;;;;21.40;59.40;;;;;;5076124;28;19928;-56
2021/11/30 02:39:20;;;;;;;;;;;21.40;59.40;;;;;;5057882;28;19925;-54
2021/11/30 02:41:47;;;;;;;;;;;21.40;59.40;;;;;;5074482;28;19924;-51
2021/11/30 02:44:16;;;;;;;;;;;21.40;59.40;;;;;;5076075;28;19924;-56
2021/11/30 02:46:45;;;;;;;;;;;21.40;59.40;;;;;;5075639;28;19937;-53
2021/11/30 02:49:13;;;;;;;;;;;21.40;59.30;;;;;;5057815;28;19931;-59
2021/11/30 02:51:44;;;;;;;;;;;21.40;59.30;;;;;;5076408;28;19928;-58
2021/11/30 02:54:12;;;;;;;;;;;21.40;59.30;;;;;;5075840;28;19925;-53
2021/11/30 02:56:41;;;;;;;;;;;21.40;59.30;;;;;;5074582;28;19932;-56
2021/11/30 02:59:08;;;;;;;;;;;21.40;59.30;;;;;;5075250;28;19928;-58
2021/11/30 03:01:36;;;;;;;;;;;21.40;59.30;;;;;;5058026;28;19925;-53
2021/11/30 03:04:13;;;;;;;;;;;21.40;59.30;;;;;;5075258;28;19978;-52
2021/11/30 03:06:41;;;;;;;;;;;21.40;59.30;;;;;;5075309;28;19924;-56
2021/11/30 03:09:09;;;;;;;;;;;21.40;59.30;;;;;;5075010;28;19924;-58
2021/11/30 03:11:36;;;;;;;;;;;21.40;59.30;;;;;;5074607;28;19947;-59
2021/11/30 03:14:03;;;;;;;;;;;21.40;59.30;;;;;;5074917;28;20376;-57
2021/11/30 03:16:31;;;;;;;;;;;21.40;59.20;;;;;;5075027;28;19929;-55
2021/11/30 03:18:58;;;;;;;;;;;21.40;59.20;;;;;;5075299;28;19932;-56
2021/11/30 03:21:25;;;;;;;;;;;21.40;59.20;;;;;;5074942;28;19928;-52
2021/11/30 03:23:53;;;;;;;;;;;21.40;59.20;;;;;;5074698;28;19924;-53
2021/11/30 03:26:20;;;;;;;;;;;21.40;59.20;;;;;;5074812;28;19954;-57
2021/11/30 03:28:47;;;;;;;;;;;21.40;59.20;;;;;;5074606;28;19977;-54
2021/11/30 03:31:33;;;;;;;;;;;21.40;59.20;;;;;;5074713;28;20383;-57
2021/11/30 03:34:01;;;;;;;;;;;21.40;59.20;;;;;;5059697;28;19964;-54
2021/11/30 03:36:28;;;;;;;;;;;21.40;59.20;;;;;;5074952;28;19924;-57
2021/11/30 03:38:56;;;;;;;;;;;21.40;59.20;;;;;;5074446;28;20380;-54
2021/11/30 03:41:23;;;;;;;;;;;21.40;59.20;;;;;;5074527;28;20342;-58
2021/11/30 03:43:50;;;;;;;;;;;21.40;59.20;;;;;;5073583;28;19970;-53
2021/11/30 03:46:17;;;;;;;;;;;21.40;59.10;;;;;;5074425;28;19925;-53
2021/11/30 03:48:45;;;;;;;;;;;21.40;59.10;;;;;;5075527;28;19950;-51
2021/11/30 03:51:12;;;;;;;;;;;21.40;59.70;;;;;;5074212;28;20330;-51
2021/11/30 03:53:43;;;;;;;;;;;21.40;59.10;;;;;;5074168;28;20023;-57
2021/11/30 03:56:10;;;;;;;;;;;21.40;59.70;;;;;;5074575;28;20315;-57
2021/11/30 03:58:37;;;;;;;;;;;21.40;59.10;;;;;;5073164;28;20375;-53
2021/11/30 04:01:04;;;;;;;;;;;21.40;59.10;;;;;;5075052;28;19943;-54
2021/11/30 04:03:34;;;;;;;;;;;21.40;59.10;;;;;;5074150;28;19931;-59
2021/11/30 04:06:02;;;;;;;;;;;21.40;59.10;;;;;;5074442;28;20299;-57
2021/11/30 04:08:30;;;;;;;;;;;21.40;59.10;;;;;;5074399;28;20355;-56
2021/11/30 04:10:57;;;;;;;;;;;21.40;59.10;;;;;;5074172;28;19932;-57
2021/11/30 04:13:24;;;;;;;;;;;21.40;59.10;;;;;;5073174;28;19971;-56
2021/11/30 04:15:51;;;;;;;;;;;21.30;59.00;;;;;;5075125;28;20299;-58
2021/11/30 04:18:17;;;;;;;;;;;21.40;59.10;;;;;;5074257;28;20272;-57
2021/11/30 04:20:44;;;;;;;;;;;21.30;59.00;;;;;;5056522;28;19973;-49
2021/11/30 04:23:11;;;;;;;;;;;21.30;59.10;;;;;;5073706;28;20011;-58
2021/11/30 04:25:38;;;;;;;;;;;21.30;59.10;;;;;;5056127;28;19947;-55
2021/11/30 04:28:05;;;;;;;;;;;21.30;59.10;;;;;;5073369;28;19928;-57
2021/11/30 04:30:33;;;;;;;;;;;21.30;59.10;;;;;;5073998;28;20341;-58
2021/11/30 04:33:00;;;;;;;;;;;21.30;59.10;;;;;;5073782;28;20453;-58
2021/11/30 04:35:27;;;;;;;;;;;21.30;59.10;;;;;;5074078;28;20268;-52
2021/11/30 04:37:54;;;;;;;;;;;21.30;59.00;;;;;;5074033;28;19964;-58
2021/11/30 04:40:21;;;;;;;;;;;21.30;59.10;;;;;;5073579;28;19928;-58
2021/11/30 04:42:49;;;;;;;;;;;21.30;59.00;;;;;;5073545;28;19929;-58
2021/11/30 04:45:24;;;;;;;;;;;21.30;59.10;;;;;;5073645;28;19924;-52
2021/11/30 04:47:54;;;;;;;;;;;21.30;59.00;;;;;;5073978;28;20296;-58
2021/11/30 04:50:24;;;;;;;;;;;21.30;59.00;;;;;;5074070;28;19925;-56
2021/11/30 04:52:53;;;;;;;;;;;21.30;59.00;;;;;;5073453;28;19925;-56
2021/11/30 04:55:29;;;;;;;;;;;21.30;59.00;;;;;;5073908;28;19925;-56
2021/11/30 04:57:58;;;;;;;;;;;21.30;59.10;;;;;;5052016;28;19936;-57
2021/11/30 05:00:26;;;;;;;;;;;21.30;59.00;;;;;;5053466;28;19936;-56
2021/11/30 05:02:53;;;;;;;;;;;21.30;59.10;;;;;;5053465;28;19925;-51
2021/11/30 05:05:20;;;;;;;;;;;21.30;59.00;;;;;;5056941;28;20380;-57
2021/11/30 05:07:48;;;;;;;;;;;21.30;59.00;;;;;;5058081;28;19928;-56
2021/11/30 05:10:18;;;;;;;;;;;21.30;59.10;;;;;;5057575;28;19933;-52
2021/11/30 05:12:46;;;;;;;;;;;21.30;59.00;;;;;;5057680;28;20418;-52
2021/11/30 05:15:14;;;;;;;;;;;21.30;59.00;;;;;;5055098;28;20418;-54
2021/11/30 05:17:41;;;;;;;;;;;21.30;59.00;;;;;;5057550;28;19925;-52
2021/11/30 05:20:09;;;;;;;;;;;21.30;59.00;;;;;;5090060;28;20376;-59
2021/11/30 05:22:36;;;;;;;;;;;21.30;59.00;;;;;;5055797;28;19925;-59
2021/11/30 05:25:21;;;;;;;;;;;21.30;59.00;;;;;;5057213;28;19925;-52
2021/11/30 05:27:49;;;;;;;;;;;21.20;58.90;;;;;;5057113;28;19932;-51
2021/11/30 05:30:19;;;;;;;;;;;21.30;59.00;;;;;;5057096;28;20055;-55
2021/11/30 05:32:49;;;;;;;;;;;21.30;59.00;;;;;;5057285;28;19931;-54
2021/11/30 05:35:16;;;;;;;;;;;21.20;58.90;;;;;;5057565;28;19925;-57
2021/11/30 05:37:43;;;;;;;;;;;21.30;59.00;;;;;;5056929;28;19968;-48
2021/11/30 05:40:11;;;;;;;;;;;21.30;59.00;;;;;;5056747;28;19929;-55
2021/11/30 05:42:38;;;;;;;;;;;21.20;58.90;;;;;;5057034;28;19929;-57
2021/11/30 05:45:05;;;;;;;;;;;21.30;59.00;;;;;;5055726;28;20020;-58
2021/11/30 05:47:32;;;;;;;;;;;21.20;58.80;;;;;;5056697;28;19999;-53
2021/11/30 05:49:59;;;;;;;;;;;21.30;58.90;;;;;;5056551;28;20445;-54
2021/11/30 05:52:26;;;;;;;;;;;21.30;58.90;;;;;;5056731;28;19924;-57
2021/11/30 05:54:53;;;;;;;;;;;21.30;58.90;;;;;;5056920;28;20336;-50
2021/11/30 05:57:22;;;;;;;;;;;21.30;58.90;;;;;;5060798;28;19972;-56
2021/11/30 05:59:50;;;;;;;;;;;21.30;58.90;;;;;;5075605;28;19929;-58
2021/11/30 06:02:18;;;;;;;;;;;21.30;58.90;;;;;;5076441;28;20372;-53
2021/11/30 06:04:45;;;;;;;;;;;21.30;58.90;;;;;;5076729;28;20422;-52
2021/11/30 06:07:12;;;;;;;;;;;21.30;58.90;;;;;;5076710;28;19928;-49
2021/11/30 06:09:39;;;;;;;;;;;21.30;58.80;;;;;;5076154;28;19974;-53
2021/11/30 06:12:06;;;;;;;;;;;21.30;58.80;;;;;;5058911;28;19932;-55
2021/11/30 06:14:33;;;;;;;;;;;21.30;58.80;;;;;;5075161;28;19947;-57
2021/11/30 06:16:59;;;;;;;;;;;21.30;59.40;;;;;;5076513;28;20342;-55
2021/11/30 06:19:27;;;;;;;;;;;21.30;58.80;;;;;;5058806;28;19968;-52
2021/11/30 06:21:54;;;;;;;;;;;21.30;58.80;;;;;;5076123;28;20384;-54
2021/11/30 06:24:21;;;;;;;;;;;21.30;58.80;;;;;;5075899;28;19970;-51
2021/11/30 06:26:49;;;;;;;;;;;21.30;58.80;;;;;;5076033;28;20350;-56
2021/11/30 06:29:16;;;;;;;;;;;21.30;58.70;;;;;;5075109;28;19924;-58
2021/11/30 06:31:43;;;;;;;;;;;21.30;58.70;;;;;;5075858;28;19929;-55
2021/11/30 06:34:10;;;;;;;;;;;21.30;58.70;;;;;;5058545;28;19928;-52
2021/11/30 06:36:37;;;;;;;;;;;21.30;58.80;;;;;;5076154;28;19925;-51
2021/11/30 06:39:05;;;;;;;;;;;21.30;58.70;;;;;;5075678;28;19928;-57
2021/11/30 06:41:32;;;;;;;;;;;21.30;58.70;;;;;;5076041;28;19925;-60
2021/11/30 06:44:00;;;;;;;;;;;21.30;58.70;;;;;;5056834;28;19932;-51
2021/11/30 06:46:27;;;;;;;;;;;21.30;58.70;;;;;;5058245;28;20321;-58
2021/11/30 06:48:54;;;;;;;;;;;21.30;58.70;;;;;;5075642;28;19924;-54
2021/11/30 06:51:21;;;;;;;;;;;21.30;58.70;;;;;;5075503;28;19924;-55
2021/11/30 06:53:49;;;;;;;;;;;21.30;58.60;;;;;;5075393;28;19974;-48
2021/11/30 06:56:16;;;;;;;;;;;21.30;58.60;;;;;;5075458;28;20387;-56
2021/11/30 06:58:43;;;;;;;;;;;21.30;58.70;;;;;;5075463;28;20367;-53
2021/11/30 07:01:12;;;;;;;;;;;21.30;58.60;;;;;;5074316;28;19925;-51
2021/11/30 07:03:42;;;;;;;;;;;21.30;58.60;;;;;;5075896;28;19970;-57
2021/11/30 07:06:36;;;;;;;;;;;21.30;58.60;;;;;;5075829;28;19924;-52
2021/11/30 07:11:53;;;;;;;;;;;21.40;58.70;;;;;;5075280;28;20433;-51
2021/11/30 07:14:20;;;;;;;;;;;21.40;58.60;;;;;;5074509;28;19968;-55
2021/11/30 07:16:49;;;;;;;;;;;21.40;58.60;;;;;;5075274;28;19951;-53
2021/11/30 07:19:16;;;;;;;;;;;21.40;58.60;;;;;;5075153;28;19928;-57
2021/11/30 07:21:44;;;;;;;;;;;21.40;58.60;;;;;;5075211;28;19924;-57
2021/11/30 07:24:11;;;;;;;;;;;21.40;58.50;;;;;;5074976;28;19928;-47
2021/11/30 07:26:38;;;;;;;;;;;21.40;58.50;;;;;;5074304;28;19968;-53
2021/11/30 07:29:25;;;;;;;;;;;21.40;58.40;;;;;;5074513;28;20431;-59
2021/11/30 07:31:53;;;;;;;;;;;21.40;58.40;;;;;;5057009;28;19924;-57
2021/11/30 07:34:20;;;;;;;;;;;21.40;58.30;;;;;;5074649;28;19928;-56
2021/11/30 07:36:47;;;;;;;;;;;21.40;58.30;;;;;;5074620;28;19928;-52
2021/11/30 07:39:14;;;;;;;;;;;21.40;58.30;;;;;;5074780;28;19931;-57
2021/11/30 07:41:42;;;;;;;;;;;21.50;58.40;;;;;;5074444;28;19924;-50
2021/11/30 07:44:09;;;;;;;;;;;21.50;58.30;;;;;;5074796;28;19933;-57
2021/11/30 07:46:37;;;;;;;;;;;21.50;58.20;;;;;;5074357;28;19997;-58
2021/11/30 07:49:05;;;;;;;;;;;21.50;58.20;;;;;;5074423;28;19925;-58
2021/11/30 07:51:32;;;;;;;;;;;21.50;58.20;;;;;;5074313;28;19924;-58
2021/11/30 07:54:00;;;;;;;;;;;21.50;58.10;;;;;;5074477;28;20326;-50
2021/11/30 07:56:27;;;;;;;;;;;21.50;58.10;;;;;;5057153;28;19924;-52
2021/11/30 07:58:54;;;;;;;;;;;21.50;58.10;;;;;;5074322;28;19925;-58
2021/11/30 08:01:22;;;;;;;;;;;21.50;58.00;;;;;;5073469;28;19925;-59
2021/11/30 08:03:50;;;;;;;;;;;21.60;58.10;;;;;;5074120;28;19932;-51
2021/11/30 08:06:16;;;;;;;;;;;21.50;58.00;;;;;;5074077;28;19932;-53
2021/11/30 08:08:44;;;;;;;;;;;21.60;58.00;;;;;;5073927;28;19924;-56
2021/11/30 08:11:11;;;;;;;;;;;21.60;58.10;;;;;;5074553;28;19925;-52
2021/11/30 08:13:40;;;;;;;;;;;21.60;58.00;;;;;;5074012;28;19955;-55
2021/11/30 08:16:08;;;;;;;;;;;21.60;57.90;;;;;;5073317;28;19924;-58
2021/11/30 08:18:35;;;;;;;;;;;21.60;57.90;;;;;;5074998;28;20376;-57
2021/11/30 08:21:02;;;;;;;;;;;21.70;57.80;;;;;;5074508;28;19924;-47
2021/11/30 08:23:29;;;;;;;;;;;21.70;57.70;;;;;;5073703;28;20006;-58
2021/11/30 08:25:56;;;;;;;;;;;21.70;58.30;;;;;;5073858;28;19924;-53
2021/11/30 08:28:23;;;;;;;;;;;21.70;57.70;;;;;;5073824;28;19999;-55
2021/11/30 08:30:50;;;;;;;;;;;21.70;57.60;;;;;;5073101;28;19932;-49
2021/11/30 08:33:18;;;;;;;;;;;21.70;57.70;;;;;;5074063;28;19929;-55
2021/11/30 08:35:46;;;;;;;;;;;21.70;57.60;;;;;;5073987;28;20439;-57
2021/11/30 08:38:14;;;;;;;;;;;21.80;57.60;;;;;;5073921;28;20287;-59
2021/11/30 08:40:41;;;;;;;;;;;21.80;57.60;;;;;;5073522;28;19998;-52
2021/11/30 08:43:08;;;;;;;;;;;21.80;57.50;;;;;;5074278;28;19931;-51
2021/11/30 08:45:35;;;;;;;;;;;21.80;57.50;;;;;;5072908;28;20029;-54
2021/11/30 08:48:02;;;;;;;;;;;21.80;57.50;;;;;;5074457;28;19925;-57
2021/11/30 08:50:30;;;;;;;;;;;21.80;57.50;;;;;;5073859;28;19925;-51
2021/11/30 08:52:57;;;;;;;;;;;21.80;57.50;;;;;;5073699;28;19932;-55
2021/11/30 08:55:24;;;;;;;;;;;21.90;57.50;;;;;;5073881;28;19947;-58
2021/11/30 08:57:51;;;;;;;;;;;21.90;57.40;;;;;;5073637;28;19971;-57
2021/11/30 09:00:20;;;;;;;;;;;21.90;57.40;;;;;;5073250;28;19934;-55
2021/11/30 09:02:47;;;;;;;;;;;21.90;57.30;;;;;;5056075;28;19951;-51
2021/11/30 09:05:15;;;;;;;;;;;21.90;57.80;;;;;;5073410;28;19924;-53
2021/11/30 09:07:42;;;;;;;;;;;22.00;57.30;;;;;;5073707;28;19924;-58
2021/11/30 09:10:09;;;;;;;;;;;22.00;57.30;;;;;;5073538;28;20359;-56
2021/11/30 09:12:36;;;;;;;;;;;22.00;57.30;;;;;;5073556;28;19928;-57
2021/11/30 09:15:07;;;;;;;;;;;22.00;57.20;;;;;;5073351;28;19979;-53
2021/11/30 09:17:51;;;;;;;;;;;22.00;57.20;;;;;;5057519;28;19930;-52
2021/11/30 09:20:18;;;;;;;;;;;22.00;57.10;;;;;;5073227;28;19925;-57
2021/11/30 09:22:46;;;;;;;;;;;22.00;57.10;;;;;;5073413;28;19925;-52
2021/11/30 09:25:13;;;;;;;;;;;22.00;57.10;;;;;;5073452;28;19978;-59
2021/11/30 09:27:40;;;;;;;;;;;22.10;57.10;;;;;;5055724;28;20372;-52
2021/11/30 09:30:08;;;;;;;;;;;22.10;57.10;;;;;;5073432;28;19932;-60
2021/11/30 09:32:40;;;;;;;;;;;22.10;57.00;;;;;;5072109;28;19924;-59
2021/11/30 09:35:09;;;;;;;;;;;22.10;56.90;;;;;;5073120;28;19925;-55
2021/11/30 09:37:38;;;;;;;;;;;22.20;57.00;;;;;;5073366;28;20383;-50
2021/11/30 09:40:07;;;;;;;;;;;22.20;56.90;;;;;;5073232;28;19931;-53
2021/11/30 09:42:35;;;;;;;;;;;22.20;56.80;;;;;;5055654;28;19928;-59
2021/11/30 09:45:07;;;;;;;;;;;22.20;56.80;;;;;;5055524;28;19925;-54
2021/11/30 09:47:35;;;;;;;;;;;22.20;56.80;;;;;;5072236;28;19924;-53
2021/11/30 09:50:03;;;;;;;;;;;22.20;56.80;;;;;;5074326;28;19970;-50
2021/11/30 09:52:30;;;;;;;;;;;22.20;56.70;;;;;;5076330;28;19925;-52
2021/11/30 09:54:57;;;;;;;;;;;22.30;56.80;;;;;;5076454;28;20379;-55
2021/11/30 09:57:30;;;;;;;;;;;22.30;56.70;;;;;;5076220;28;19925;-57
2021/11/30 09:59:58;;;;;;;;;;;22.30;56.60;;;;;;5077576;28;19933;-57
2021/11/30 10:02:39;;;;;;;;;;;22.30;56.70;;;;;;5075954;28;19947;-52
2021/11/30 10:05:07;;;;;;;;;;;22.30;56.60;;;;;;5076641;28;20287;-56
2021/11/30 10:07:39;;;;;;;;;;;22.30;56.60;;;;;;5076535;28;19929;-54
2021/11/30 10:10:14;;;;;;;;;;;22.30;56.50;;;;;;5076224;28;19974;-57
2021/11/30 10:12:42;;;;;;;;;;;22.30;56.50;;;;;;5076187;28;19974;-59
2021/11/30 10:15:10;;;;;;;;;;;22.30;56.50;;;;;;5076206;28;19931;-59
2021/11/30 10:17:38;;;;;;;;;;;22.30;56.50;;;;;;5075239;28;19946;-58
2021/11/30 10:20:09;;;;;;;;;;;22.40;56.60;;;;;;5076131;28;19924;-53
2021/11/30 10:22:40;;;;;;;;;;;22.40;56.50;;;;;;5076192;28;19932;-53
2021/11/30 10:25:13;;;;;;;;;;;22.40;56.50;;;;;;5076321;28;19929;-56
2021/11/30 10:27:41;;;;;;;;;;;22.40;56.50;;;;;;5076355;28;19928;-50
2021/11/30 10:30:14;;;;;;;;;;;22.40;56.50;;;;;;5076334;28;19924;-57
2021/11/30 10:32:44;;;;;;;;;;;22.40;56.50;;;;;;5075066;28;19924;-57
2021/11/30 10:35:11;;;;;;;;;;;22.40;56.50;;;;;;5076087;28;20346;-56
2021/11/30 10:37:42;;;;;;;;;;;22.40;56.50;;;;;;5075828;28;19924;-55
2021/11/30 10:40:29;;;;;;;;;;;22.50;56.50;;;;;;5075966;28;20291;-57
2021/11/30 10:42:57;;;;;;;;;;;22.50;56.50;;;;;;5075750;28;19924;-53
2021/11/30 10:45:28;;;;;;;;;;;22.40;56.30;;;;;;5075603;28;19978;-51
2021/11/30 10:48:02;;;;;;;;;;;22.40;57.00;;;;;;5075095;28;19925;-51
2021/11/30 10:50:33;;;;;;;;;;;22.50;56.40;;;;;;5075898;28;19978;-48
2021/11/30 10:53:01;;;;;;;;;;;22.50;56.40;;;;;;5075228;28;19931;-52
2021/11/30 10:55:28;;;;;;;;;;;22.50;56.40;;;;;;5042180;28;20363;-49
2021/11/30 10:57:55;;;;;;;;;;;22.50;56.50;;;;;;5075035;28;19925;-56
2021/11/30 11:00:28;;;;;;;;;;;22.50;56.40;;;;;;5075567;28;19925;-51
2021/11/30 11:03:01;;;;;;;;;;;22.50;56.40;;;;;;5074106;28;19967;-57
2021/11/30 11:05:34;;;;;;;;;;;22.50;56.40;;;;;;5075664;28;19947;-53
2021/11/30 11:08:14;;;;;;;;;;;22.50;56.40;;;;;;5075596;28;19924;-53
2021/11/30 11:10:42;;;;;;;;;;;22.50;56.50;;;;;;5075155;28;19931;-53
2021/11/30 11:13:24;;;;;;;;;;;22.50;56.40;;;;;;5075050;28;19956;-49
2021/11/30 11:15:53;;;;;;;;;;;22.50;56.40;;;;;;5075558;28;20019;-57
2021/11/30 11:18:24;;;;;;;;;;;22.50;56.40;;;;;;5074187;28;19925;-52
2021/11/30 11:21:07;;;;;;;;;;;22.50;56.40;;;;;;5074979;28;20383;-55
2021/11/30 11:23:34;;;;;;;;;;;22.50;56.40;;;;;;5075107;28;19978;-57
2021/11/30 11:26:19;;;;;;;;;;;22.50;56.40;;;;;;5074860;28;19928;-57
2021/11/30 11:28:47;;;;;;;;;;;22.50;56.40;;;;;;5074796;28;19930;-51
2021/11/30 11:31:14;;;;;;;;;;;22.50;56.40;;;;;;5074975;28;19932;-54
2021/11/30 11:33:41;;;;;;;;;;;22.50;56.40;;;;;;5073571;28;19978;-58
2021/11/30 11:36:08;;;;;;;;;;;22.50;56.40;;;;;;5074286;28;19924;-54
2021/11/30 11:38:35;;;;;;;;;;;22.50;57.00;;;;;;5074531;28;19924;-55
2021/11/30 11:41:02;;;;;;;;;;;22.50;56.40;;;;;;5074755;28;19931;-49
2021/11/30 11:43:30;;;;;;;;;;;22.50;56.40;;;;;;5074524;28;19925;-58
2021/11/30 11:45:57;;;;;;;;;;;22.50;57.00;;;;;;5056830;28;19928;-51
2021/11/30 11:48:28;;;;;;;;;;;22.60;56.50;;;;;;5073431;28;19924;-57
2021/11/30 11:50:56;;;;;;;;;;;22.50;56.50;;;;;;5074873;28;19990;-53
2021/11/30 11:53:50;;;;;;;;;;;22.50;56.50;;;;;;5056712;28;19999;-51
2021/11/30 11:56:27;;;;;;;;;;;22.50;56.50;;;;;;5072120;28;19943;-57
2021/11/30 11:59:14;;;;;;;;;;;22.50;56.60;;;;;;5056436;28;19947;-57
2021/11/30 12:01:43;;;;;;;;;;;22.50;56.60;;;;;;5074066;28;19931;-51
2021/11/30 12:04:14;;;;;;;;;;;22.50;56.70;;;;;;5073828;28;19924;-50
2021/11/30 12:07:01;;;;;;;;;;;22.50;56.60;;;;;;5074470;28;19924;-58
2021/11/30 12:09:29;;;;;;;;;;;22.50;56.70;;;;;;5073962;28;19925;-54
2021/11/30 12:11:58;;;;;;;;;;;22.50;56.70;;;;;;5073914;28;20442;-49
2021/11/30 12:14:47;;;;;;;;;;;22.40;56.60;;;;;;5074001;28;19924;-56
2021/11/30 12:17:23;;;;;;;;;;;22.50;56.70;;;;;;5074554;28;19924;-54
2021/11/30 12:19:56;;;;;;;;;;;22.40;56.70;;;;;;5073644;28;19924;-49
2021/11/30 12:22:41;;;;;;;;;;;22.50;56.70;;;;;;5074046;28;19925;-54
2021/11/30 12:25:27;;;;;;;;;;;22.40;56.70;;;;;;5074311;28;19924;-52
2021/11/30 12:28:05;;;;;;;;;;;22.40;56.70;;;;;;5073847;28;19925;-56
2021/11/30 12:30:43;;;;;;;;;;;22.40;56.70;;;;;;5073846;28;20372;-53
2021/11/30 12:33:22;;;;;;;;;;;22.40;56.80;;;;;;5077632;28;19924;-51
2021/11/30 12:35:56;;;;;;;;;;;22.40;56.70;;;;;;5093923;28;19924;-55
2021/11/30 12:38:25;;;;;;;;;;;22.40;56.70;;;;;;5094252;28;20865;-58
2021/11/30 12:40:53;;;;;;;;;;;22.40;56.70;;;;;;5094153;28;20295;-58
2021/11/30 12:43:24;;;;;;;;;;;22.40;56.70;;;;;;5094183;28;19924;-50
2021/11/30 12:45:52;;;;;;;;;;;22.40;57.30;;;;;;5093728;28;19924;-56
2021/11/30 12:48:20;;;;;;;;;;;22.40;56.80;;;;;;5087625;28;20025;-54
2021/11/30 12:50:47;;;;;;;;;;;22.40;56.80;;;;;;5073600;28;19939;-50
2021/11/30 12:53:14;;;;;;;;;;;22.40;56.80;;;;;;5073996;28;20386;-54
2021/11/30 12:55:46;;;;;;;;;;;22.40;56.80;;;;;;5073605;28;19925;-57
2021/11/30 12:58:31;;;;;;;;;;;22.40;56.80;;;;;;5073385;28;20372;-50
2021/11/30 13:01:10;;;;;;;;;;;22.40;56.80;;;;;;5056056;28;20038;-59
2021/11/30 13:03:38;;;;;;;;;;;22.40;56.90;;;;;;5072435;28;20379;-51
2021/11/30 13:06:05;;;;;;;;;;;22.40;56.90;;;;;;5073680;28;20292;-58
2021/11/30 13:08:52;;;;;;;;;;;22.40;57.00;;;;;;5074261;28;19924;-47
2021/11/30 13:11:26;;;;;;;;;;;22.30;57.00;;;;;;5073557;28;20004;-53
2021/11/30 13:13:57;;;;;;;;;;;22.40;57.10;;;;;;5073416;28;19986;-48
2021/11/30 13:16:24;;;;;;;;;;;22.30;57.10;;;;;;5073677;28;19931;-58
2021/11/30 13:19:00;;;;;;;;;;;22.30;57.20;;;;;;5054584;28;19924;-58
2021/11/30 13:21:32;;;;;;;;;;;22.40;57.30;;;;;;5073269;28;19929;-57
2021/11/30 13:24:07;;;;;;;;;;;22.40;57.40;;;;;;5073252;28;19932;-58
2021/11/30 13:26:34;;;;;;;;;;;22.40;57.40;;;;;;5077541;28;19930;-58
2021/11/30 13:29:02;;;;;;;;;;;22.30;57.30;;;;;;5077106;28;20409;-51
2021/11/30 13:31:29;;;;;;;;;;;22.30;57.40;;;;;;5076973;28;19970;-53
2021/11/30 13:33:59;;;;;;;;;;;22.30;57.40;;;;;;5075979;28;20042;-58
2021/11/30 13:36:28;;;;;;;;;;;22.30;57.40;;;;;;5077326;28;19974;-53
2021/11/30 13:38:58;;;;;;;;;;;22.30;57.40;;;;;;5076894;28;19924;-53
2021/11/30 13:41:25;;;;;;;;;;;22.30;57.40;;;;;;5077170;28;19925;-56
2021/11/30 13:43:53;;;;;;;;;;;22.30;57.40;;;;;;5076792;28;19978;-57
2021/11/30 13:46:24;;;;;;;;;;;22.30;57.40;;;;;;5042734;28;19931;-55
2021/11/30 13:49:00;;;;;;;;;;;22.30;57.40;;;;;;5076189;28;20020;-58
2021/11/30 13:51:35;;;;;;;;;;;22.30;57.40;;;;;;5077065;28;20303;-59
2021/11/30 13:54:03;;;;;;;;;;;22.30;57.40;;;;;;5076557;28;19928;-48
2021/11/30 13:56:32;;;;;;;;;;;22.30;57.50;;;;;;5077468;28;19925;-58
2021/11/30 14:01:50;;;;;;;;;;;22.30;57.50;;;;;;5076538;28;19960;-54
2021/11/30 14:04:19;;;;;;;;;;;22.20;57.40;;;;;;5075975;28;20011;-54
2021/11/30 14:06:48;;;;;;;;;;;22.30;57.40;;;;;;5076476;28;20016;-57
2021/11/30 14:09:22;;;;;;;;;;;22.20;57.40;;;;;;5076617;28;19924;-55
2021/11/30 14:11:54;;;;;;;;;;;22.20;57.40;;;;;;5076301;28;19931;-55
2021/11/30 14:14:40;;;;;;;;;;;22.20;58.00;;;;;;5076361;28;19932;-57
2021/11/30 14:17:07;;;;;;;;;;;22.20;57.40;;;;;;5076562;28;20014;-54
2021/11/30 14:19:38;;;;;;;;;;;22.30;57.50;;;;;;5075583;28;19925;-57
2021/11/30 14:22:06;;;;;;;;;;;22.20;57.40;;;;;;5076238;28;19928;-59
2021/11/30 14:24:48;;;;;;;;;;;22.20;57.40;;;;;;5076466;28;19924;-53
2021/11/30 14:27:15;;;;;;;;;;;22.20;57.50;;;;;;5076137;28;19978;-56
2021/11/30 14:29:45;;;;;;;;;;;22.20;57.40;;;;;;5076387;28;19925;-58
2021/11/30 14:32:20;;;;;;;;;;;22.20;57.40;;;;;;5077323;28;19952;-57
2021/11/30 14:34:49;;;;;;;;;;;22.30;57.50;;;;;;5075939;28;20015;-58